sensor_id;sensor_type;location;lat;lon;timestamp;pressure;altitude;pressure_sealevel;temperature;humidity
41947;BME280;27638;42.184;24.848;2023-12-22T00:02:08;98380.44;;;6.11;70.51
41947;BME280;27638;42.184;24.848;2023-12-22T00:04:34;98384.53;;;6.05;71.02
41947;BME280;27638;42.184;24.848;2023-12-22T00:06:59;98378.81;;;6.02;71.84
41947;BME280;27638;42.184;24.848;2023-12-22T00:09:25;98387.31;;;6.12;72.68
41947;BME280;27638;42.184;24.848;2023-12-22T00:11:50;98382.06;;;6.12;73.28
41947;BME280;27638;42.184;24.848;2023-12-22T00:14:16;98384.53;;;6.05;71.19
41947;BME280;27638;42.184;24.848;2023-12-22T00:16:41;98373.88;;;6.07;72.91
41947;BME280;27638;42.184;24.848;2023-12-22T00:19:06;98363.03;;;6.02;73.81
41947;BME280;27638;42.184;24.848;2023-12-22T00:21:32;98365.34;;;6.05;75.76
41947;BME280;27638;42.184;24.848;2023-12-22T00:23:58;98357.94;;;6.00;75.81
41947;BME280;27638;42.184;24.848;2023-12-22T00:26:23;98360.75;;;5.91;75.69
41947;BME280;27638;42.184;24.848;2023-12-22T00:28:49;98361.38;;;5.85;76.79
41947;BME280;27638;42.184;24.848;2023-12-22T00:31:14;98358.94;;;5.83;76.36
41947;BME280;27638;42.184;24.848;2023-12-22T00:33:39;98353.34;;;5.86;76.70
41947;BME280;27638;42.184;24.848;2023-12-22T00:36:05;98364.84;;;5.85;76.37
41947;BME280;27638;42.184;24.848;2023-12-22T00:38:30;98356.63;;;5.80;76.97
41947;BME280;27638;42.184;24.848;2023-12-22T00:40:56;98353.34;;;5.78;78.03
41947;BME280;27638;42.184;24.848;2023-12-22T00:43:22;98349.09;;;5.93;76.92
41947;BME280;27638;42.184;24.848;2023-12-22T00:45:47;98343.50;;;5.96;77.21
41947;BME280;27638;42.184;24.848;2023-12-22T00:48:12;98346.94;;;6.05;76.25
41947;BME280;27638;42.184;24.848;2023-12-22T00:50:38;98350.88;;;6.09;75.35
41947;BME280;27638;42.184;24.848;2023-12-22T00:53:03;98337.59;;;6.02;75.30
41947;BME280;27638;42.184;24.848;2023-12-22T00:55:29;98341.19;;;5.85;73.33
41947;BME280;27638;42.184;24.848;2023-12-22T00:57:54;98335.78;;;5.70;72.76
41947;BME280;27638;42.184;24.848;2023-12-22T01:00:20;98341.06;;;5.46;74.45
41947;BME280;27638;42.184;24.848;2023-12-22T01:02:45;98331.69;;;5.60;75.41
41947;BME280;27638;42.184;24.848;2023-12-22T01:05:11;98329.06;;;5.68;76.19
41947;BME280;27638;42.184;24.848;2023-12-22T01:07:36;98328.41;;;5.66;75.48
41947;BME280;27638;42.184;24.848;2023-12-22T01:10:02;98321.19;;;5.52;76.63
41947;BME280;27638;42.184;24.848;2023-12-22T01:12:29;98330.22;;;5.49;76.27
41947;BME280;27638;42.184;24.848;2023-12-22T01:14:56;98320.88;;;5.30;77.71
41947;BME280;27638;42.184;24.848;2023-12-22T01:17:21;98317.97;;;4.75;81.31
41947;BME280;27638;42.184;24.848;2023-12-22T01:19:47;98321.25;;;4.85;81.38
41947;BME280;27638;42.184;24.848;2023-12-22T01:22:12;98312.13;;;5.05;81.04
41947;BME280;27638;42.184;24.848;2023-12-22T01:24:38;98327.53;;;5.08;80.53
41947;BME280;27638;42.184;24.848;2023-12-22T01:27:06;98312.94;;;5.14;80.72
41947;BME280;27638;42.184;24.848;2023-12-22T01:29:32;98304.28;;;5.30;79.27
41947;BME280;27638;42.184;24.848;2023-12-22T01:31:57;98306.25;;;5.44;78.72
41947;BME280;27638;42.184;24.848;2023-12-22T01:34:23;98304.63;;;5.51;78.01
41947;BME280;27638;42.184;24.848;2023-12-22T01:36:48;98292.97;;;5.21;79.73
41947;BME280;27638;42.184;24.848;2023-12-22T01:39:15;98288.66;;;4.96;80.80
41947;BME280;27638;42.184;24.848;2023-12-22T01:41:40;98284.91;;;5.14;80.52
41947;BME280;27638;42.184;24.848;2023-12-22T01:44:06;98288.88;;;5.27;79.81
41947;BME280;27638;42.184;24.848;2023-12-22T01:46:32;98281.00;;;5.35;79.86
41947;BME280;27638;42.184;24.848;2023-12-22T01:48:59;98279.47;;;4.92;81.19
41947;BME280;27638;42.184;24.848;2023-12-22T01:51:27;98270.31;;;5.04;80.98
41947;BME280;27638;42.184;24.848;2023-12-22T01:53:53;98277.69;;;5.08;80.35
41947;BME280;27638;42.184;24.848;2023-12-22T01:56:19;98276.88;;;5.16;80.09
41947;BME280;27638;42.184;24.848;2023-12-22T01:58:44;98269.00;;;5.16;79.94
41947;BME280;27638;42.184;24.848;2023-12-22T02:01:10;98263.75;;;5.16;79.59
41947;BME280;27638;42.184;24.848;2023-12-22T02:03:36;98258.84;;;5.29;79.36
41947;BME280;27638;42.184;24.848;2023-12-22T02:06:03;98260.66;;;5.37;78.99
41947;BME280;27638;42.184;24.848;2023-12-22T02:08:31;98262.63;;;5.43;78.00
41947;BME280;27638;42.184;24.848;2023-12-22T02:10:58;98261.97;;;5.25;79.05
41947;BME280;27638;42.184;24.848;2023-12-22T02:13:23;98259.81;;;5.04;79.45
41947;BME280;27638;42.184;24.848;2023-12-22T02:15:56;98268.94;;;4.67;81.25
41947;BME280;27638;42.184;24.848;2023-12-22T02:18:30;98276.66;;;4.69;81.51
41947;BME280;27638;42.184;24.848;2023-12-22T02:20:57;98274.00;;;4.61;82.14
41947;BME280;27638;42.184;24.848;2023-12-22T02:23:23;98258.03;;;4.30;83.47
41947;BME280;27638;42.184;24.848;2023-12-22T02:25:55;98247.88;;;4.35;83.44
41947;BME280;27638;42.184;24.848;2023-12-22T02:28:23;98242.84;;;4.41;83.53
41947;BME280;27638;42.184;24.848;2023-12-22T02:31:03;98235.22;;;4.22;84.42
41947;BME280;27638;42.184;24.848;2023-12-22T02:33:32;98233.13;;;4.26;84.21
41947;BME280;27638;42.184;24.848;2023-12-22T02:36:03;98236.94;;;4.47;83.09
41947;BME280;27638;42.184;24.848;2023-12-22T02:38:31;98235.69;;;4.68;82.51
41947;BME280;27638;42.184;24.848;2023-12-22T02:40:57;98234.41;;;4.88;81.70
41947;BME280;27638;42.184;24.848;2023-12-22T02:43:23;98234.22;;;4.90;80.36
41947;BME280;27638;42.184;24.848;2023-12-22T02:45:51;98241.75;;;4.85;81.23
41947;BME280;27638;42.184;24.848;2023-12-22T02:48:17;98242.25;;;4.96;80.17
41947;BME280;27638;42.184;24.848;2023-12-22T02:50:43;98239.97;;;4.93;80.67
41947;BME280;27638;42.184;24.848;2023-12-22T02:53:08;98221.44;;;5.03;80.51
41947;BME280;27638;42.184;24.848;2023-12-22T02:55:33;98238.81;;;5.04;79.40
41947;BME280;27638;42.184;24.848;2023-12-22T02:57:59;98235.06;;;4.98;79.05
41947;BME280;27638;42.184;24.848;2023-12-22T03:00:24;98247.19;;;4.99;79.55
41947;BME280;27638;42.184;24.848;2023-12-22T03:02:50;98238.00;;;5.03;79.74
41947;BME280;27638;42.184;24.848;2023-12-22T03:05:15;98238.50;;;5.15;79.70
41947;BME280;27638;42.184;24.848;2023-12-22T03:07:40;98234.09;;;5.24;79.54
41947;BME280;27638;42.184;24.848;2023-12-22T03:10:06;98240.34;;;5.23;78.87
41947;BME280;27638;42.184;24.848;2023-12-22T03:12:32;98253.13;;;5.26;79.06
41947;BME280;27638;42.184;24.848;2023-12-22T03:14:57;98266.91;;;5.28;78.67
41947;BME280;27638;42.184;24.848;2023-12-22T03:17:23;98251.00;;;5.21;78.62
41947;BME280;27638;42.184;24.848;2023-12-22T03:19:48;98233.25;;;5.07;79.06
41947;BME280;27638;42.184;24.848;2023-12-22T03:22:13;98223.09;;;5.12;77.72
41947;BME280;27638;42.184;24.848;2023-12-22T03:24:39;98226.84;;;5.01;78.55
41947;BME280;27638;42.184;24.848;2023-12-22T03:27:04;98227.50;;;5.03;78.81
41947;BME280;27638;42.184;24.848;2023-12-22T03:29:30;98214.06;;;5.06;78.92
41947;BME280;27638;42.184;24.848;2023-12-22T03:31:55;98217.34;;;5.17;79.18
41947;BME280;27638;42.184;24.848;2023-12-22T03:34:20;98226.88;;;5.26;78.33
41947;BME280;27638;42.184;24.848;2023-12-22T03:36:46;98217.84;;;5.28;78.82
41947;BME280;27638;42.184;24.848;2023-12-22T03:39:14;98212.75;;;5.10;79.47
41947;BME280;27638;42.184;24.848;2023-12-22T03:41:40;98226.84;;;4.93;80.31
41947;BME280;27638;42.184;24.848;2023-12-22T03:44:05;98224.88;;;4.79;81.61
41947;BME280;27638;42.184;24.848;2023-12-22T03:46:32;98214.53;;;4.69;82.36
41947;BME280;27638;42.184;24.848;2023-12-22T03:48:57;98228.31;;;4.71;82.71
41947;BME280;27638;42.184;24.848;2023-12-22T03:51:23;98214.72;;;4.76;83.38
41947;BME280;27638;42.184;24.848;2023-12-22T03:53:48;98204.22;;;5.00;82.45
41947;BME280;27638;42.184;24.848;2023-12-22T03:56:14;98216.69;;;5.14;81.52
41947;BME280;27638;42.184;24.848;2023-12-22T03:58:39;98216.88;;;5.21;80.88
41947;BME280;27638;42.184;24.848;2023-12-22T04:01:04;98208.00;;;5.30;80.34
41947;BME280;27638;42.184;24.848;2023-12-22T04:03:33;98198.50;;;5.37;80.75
41947;BME280;27638;42.184;24.848;2023-12-22T04:06:02;98185.69;;;5.42;79.48
41947;BME280;27638;42.184;24.848;2023-12-22T04:08:27;98181.72;;;5.47;79.54
41947;BME280;27638;42.184;24.848;2023-12-22T04:10:53;98185.34;;;5.45;80.00
41947;BME280;27638;42.184;24.848;2023-12-22T04:13:18;98181.88;;;5.53;79.42
41947;BME280;27638;42.184;24.848;2023-12-22T04:15:43;98181.84;;;5.61;79.25
41947;BME280;27638;42.184;24.848;2023-12-22T04:18:09;98190.88;;;5.67;79.51
41947;BME280;27638;42.184;24.848;2023-12-22T04:20:34;98184.13;;;5.72;78.09
41947;BME280;27638;42.184;24.848;2023-12-22T04:23:00;98192.00;;;5.72;78.32
41947;BME280;27638;42.184;24.848;2023-12-22T04:25:25;98190.72;;;5.60;78.66
41947;BME280;27638;42.184;24.848;2023-12-22T04:27:53;98182.69;;;5.54;78.66
41947;BME280;27638;42.184;24.848;2023-12-22T04:30:19;98188.59;;;5.56;79.98
41947;BME280;27638;42.184;24.848;2023-12-22T04:32:44;98183.19;;;5.57;79.21
41947;BME280;27638;42.184;24.848;2023-12-22T04:35:10;98170.25;;;5.48;79.53
41947;BME280;27638;42.184;24.848;2023-12-22T04:37:35;98189.28;;;5.50;80.58
41947;BME280;27638;42.184;24.848;2023-12-22T04:40:01;98188.31;;;5.42;80.76
41947;BME280;27638;42.184;24.848;2023-12-22T04:42:27;98187.00;;;5.14;81.51
41947;BME280;27638;42.184;24.848;2023-12-22T04:44:52;98189.13;;;5.19;81.45
41947;BME280;27638;42.184;24.848;2023-12-22T04:47:18;98178.97;;;4.83;83.63
41947;BME280;27638;42.184;24.848;2023-12-22T04:49:43;98188.16;;;5.03;82.56
41947;BME280;27638;42.184;24.848;2023-12-22T04:52:10;98190.13;;;4.77;83.63
41947;BME280;27638;42.184;24.848;2023-12-22T04:54:36;98188.16;;;4.95;83.48
41947;BME280;27638;42.184;24.848;2023-12-22T04:57:01;98185.72;;;4.94;83.24
41947;BME280;27638;42.184;24.848;2023-12-22T04:59:27;98189.31;;;4.68;84.24
41947;BME280;27638;42.184;24.848;2023-12-22T05:01:52;98197.34;;;4.75;85.32
41947;BME280;27638;42.184;24.848;2023-12-22T05:04:17;98188.81;;;4.81;85.02
41947;BME280;27638;42.184;24.848;2023-12-22T05:06:43;98191.78;;;4.78;84.82
41947;BME280;27638;42.184;24.848;2023-12-22T05:09:10;98200.63;;;4.69;86.44
41947;BME280;27638;42.184;24.848;2023-12-22T05:11:36;98186.19;;;4.57;86.80
41947;BME280;27638;42.184;24.848;2023-12-22T05:14:01;98187.66;;;4.51;87.71
41947;BME280;27638;42.184;24.848;2023-12-22T05:16:26;98186.00;;;4.58;87.43
41947;BME280;27638;42.184;24.848;2023-12-22T05:18:53;98176.19;;;4.68;86.77
41947;BME280;27638;42.184;24.848;2023-12-22T05:21:18;98180.47;;;4.69;86.37
41947;BME280;27638;42.184;24.848;2023-12-22T05:23:44;98163.56;;;4.56;87.28
41947;BME280;27638;42.184;24.848;2023-12-22T05:26:09;98155.94;;;4.12;89.65
41947;BME280;27638;42.184;24.848;2023-12-22T05:28:35;98157.13;;;4.26;89.74
41947;BME280;27638;42.184;24.848;2023-12-22T05:31:00;98153.72;;;4.49;88.86
41947;BME280;27638;42.184;24.848;2023-12-22T05:33:25;98149.97;;;4.60;87.70
41947;BME280;27638;42.184;24.848;2023-12-22T05:35:52;98169.81;;;4.63;87.91
41947;BME280;27638;42.184;24.848;2023-12-22T05:38:17;98156.38;;;4.82;87.63
41947;BME280;27638;42.184;24.848;2023-12-22T05:40:43;98161.59;;;4.98;86.63
41947;BME280;27638;42.184;24.848;2023-12-22T05:43:09;98152.91;;;5.14;85.50
41947;BME280;27638;42.184;24.848;2023-12-22T05:45:35;98165.38;;;5.12;85.57
41947;BME280;27638;42.184;24.848;2023-12-22T05:48:00;98156.66;;;5.11;85.64
41947;BME280;27638;42.184;24.848;2023-12-22T05:50:26;98156.81;;;5.18;85.53
41947;BME280;27638;42.184;24.848;2023-12-22T05:52:51;98165.19;;;5.30;84.33
41947;BME280;27638;42.184;24.848;2023-12-22T05:55:17;98168.16;;;5.35;84.05
41947;BME280;27638;42.184;24.848;2023-12-22T05:57:42;98165.34;;;5.44;83.58
41947;BME280;27638;42.184;24.848;2023-12-22T06:00:08;98164.66;;;5.51;82.98
41947;BME280;27638;42.184;24.848;2023-12-22T06:02:35;98161.56;;;5.47;82.74
41947;BME280;27638;42.184;24.848;2023-12-22T06:05:00;98178.47;;;5.44;83.39
41947;BME280;27638;42.184;24.848;2023-12-22T06:07:26;98177.31;;;5.39;83.55
41947;BME280;27638;42.184;24.848;2023-12-22T06:09:52;98163.69;;;5.43;83.59
41947;BME280;27638;42.184;24.848;2023-12-22T06:12:17;98166.13;;;5.53;83.10
41947;BME280;27638;42.184;24.848;2023-12-22T06:14:43;98167.31;;;5.34;83.06
41947;BME280;27638;42.184;24.848;2023-12-22T06:17:08;98161.59;;;5.23;83.98
41947;BME280;27638;42.184;24.848;2023-12-22T06:19:35;98162.75;;;5.28;84.54
41947;BME280;27638;42.184;24.848;2023-12-22T06:22:01;98174.22;;;5.35;84.10
41947;BME280;27638;42.184;24.848;2023-12-22T06:24:26;98174.88;;;5.37;84.84
41947;BME280;27638;42.184;24.848;2023-12-22T06:26:52;98171.25;;;5.38;84.51
41947;BME280;27638;42.184;24.848;2023-12-22T06:29:17;98176.66;;;5.45;84.82
41947;BME280;27638;42.184;24.848;2023-12-22T06:31:43;98183.69;;;5.53;84.97
41947;BME280;27638;42.184;24.848;2023-12-22T06:34:08;98176.59;;;5.61;84.82
41947;BME280;27638;42.184;24.848;2023-12-22T06:36:33;98169.69;;;5.68;84.35
41947;BME280;27638;42.184;24.848;2023-12-22T06:38:59;98169.66;;;5.76;84.34
41947;BME280;27638;42.184;24.848;2023-12-22T06:41:28;98182.59;;;5.86;83.02
41947;BME280;27638;42.184;24.848;2023-12-22T06:43:55;98175.50;;;5.48;85.19
41947;BME280;27638;42.184;24.848;2023-12-22T06:46:22;98175.44;;;5.64;85.61
41947;BME280;27638;42.184;24.848;2023-12-22T06:48:49;98174.25;;;5.74;84.86
41947;BME280;27638;42.184;24.848;2023-12-22T06:51:19;98164.84;;;5.88;84.33
41947;BME280;27638;42.184;24.848;2023-12-22T06:53:45;98171.44;;;5.84;84.46
41947;BME280;27638;42.184;24.848;2023-12-22T06:56:25;98172.44;;;5.83;85.12
41947;BME280;27638;42.184;24.848;2023-12-22T06:58:52;98171.28;;;5.86;85.63
41947;BME280;27638;42.184;24.848;2023-12-22T07:01:29;98168.47;;;5.87;86.09
41947;BME280;27638;42.184;24.848;2023-12-22T07:03:54;98170.06;;;5.57;86.55
41947;BME280;27638;42.184;24.848;2023-12-22T07:06:21;98175.09;;;5.75;86.33
41947;BME280;27638;42.184;24.848;2023-12-22T07:11:36;98174.25;;;5.83;87.54
41947;BME280;27638;42.184;24.848;2023-12-22T07:14:02;98173.25;;;5.84;87.28
41947;BME280;27638;42.184;24.848;2023-12-22T07:16:27;98171.09;;;5.95;85.78
41947;BME280;27638;42.184;24.848;2023-12-22T07:18:53;98169.94;;;5.98;86.36
41947;BME280;27638;42.184;24.848;2023-12-22T07:21:18;98166.84;;;5.94;86.90
41947;BME280;27638;42.184;24.848;2023-12-22T07:23:44;98159.72;;;6.03;85.52
41947;BME280;27638;42.184;24.848;2023-12-22T07:26:10;98158.06;;;6.10;85.29
41947;BME280;27638;42.184;24.848;2023-12-22T07:28:36;98171.19;;;6.10;86.28
41947;BME280;27638;42.184;24.848;2023-12-22T07:31:01;98158.09;;;6.02;86.25
41947;BME280;27638;42.184;24.848;2023-12-22T07:33:26;98162.13;;;6.13;86.05
41947;BME280;27638;42.184;24.848;2023-12-22T07:35:52;98164.00;;;6.04;85.60
41947;BME280;27638;42.184;24.848;2023-12-22T07:38:17;98156.41;;;6.09;86.17
41947;BME280;27638;42.184;24.848;2023-12-22T07:40:43;98145.84;;;6.17;85.95
41947;BME280;27638;42.184;24.848;2023-12-22T07:43:08;98145.84;;;6.25;85.57
41947;BME280;27638;42.184;24.848;2023-12-22T07:45:34;98142.88;;;6.28;84.66
41947;BME280;27638;42.184;24.848;2023-12-22T07:47:59;98134.00;;;6.21;84.81
41947;BME280;27638;42.184;24.848;2023-12-22T07:50:25;98138.28;;;6.22;85.87
41947;BME280;27638;42.184;24.848;2023-12-22T07:52:50;98143.84;;;6.27;86.78
41947;BME280;27638;42.184;24.848;2023-12-22T07:55:16;98139.78;;;6.17;87.11
41947;BME280;27638;42.184;24.848;2023-12-22T07:57:41;98139.97;;;6.15;88.01
41947;BME280;27638;42.184;24.848;2023-12-22T08:00:07;98153.06;;;6.23;87.52
41947;BME280;27638;42.184;24.848;2023-12-22T08:02:34;98142.00;;;6.36;87.79
41947;BME280;27638;42.184;24.848;2023-12-22T08:05:00;98153.41;;;6.51;87.21
41947;BME280;27638;42.184;24.848;2023-12-22T08:07:25;98159.59;;;6.58;87.02
41947;BME280;27638;42.184;24.848;2023-12-22T08:09:51;98150.00;;;6.65;86.44
41947;BME280;27638;42.184;24.848;2023-12-22T08:12:16;98144.50;;;6.75;86.26
41947;BME280;27638;42.184;24.848;2023-12-22T08:14:41;98151.53;;;6.60;86.19
41947;BME280;27638;42.184;24.848;2023-12-22T08:17:07;98160.00;;;6.70;86.90
41947;BME280;27638;42.184;24.848;2023-12-22T08:19:32;98156.03;;;6.74;86.07
41947;BME280;27638;42.184;24.848;2023-12-22T08:21:58;98158.41;;;6.84;86.65
41947;BME280;27638;42.184;24.848;2023-12-22T08:24:23;98165.47;;;6.83;85.83
41947;BME280;27638;42.184;24.848;2023-12-22T08:26:49;98170.91;;;6.82;85.56
41947;BME280;27638;42.184;24.848;2023-12-22T08:29:15;98184.66;;;6.69;86.31
41947;BME280;27638;42.184;24.848;2023-12-22T08:31:41;98187.75;;;6.50;87.74
41947;BME280;27638;42.184;24.848;2023-12-22T08:34:06;98183.41;;;5.95;90.42
41947;BME280;27638;42.184;24.848;2023-12-22T08:36:32;98180.69;;;5.72;90.92
41947;BME280;27638;42.184;24.848;2023-12-22T08:38:57;98183.25;;;5.88;90.86
41947;BME280;27638;42.184;24.848;2023-12-22T08:41:23;98170.53;;;6.08;89.68
41947;BME280;27638;42.184;24.848;2023-12-22T08:43:49;98166.00;;;6.33;89.17
41947;BME280;27638;42.184;24.848;2023-12-22T08:46:14;98174.25;;;6.53;88.82
41947;BME280;27638;42.184;24.848;2023-12-22T08:48:40;98162.34;;;6.65;88.29
41947;BME280;27638;42.184;24.848;2023-12-22T08:51:06;98167.66;;;6.80;87.32
41947;BME280;27638;42.184;24.848;2023-12-22T08:53:33;98157.41;;;6.85;86.49
41947;BME280;27638;42.184;24.848;2023-12-22T08:56:01;98169.88;;;6.68;87.30
41947;BME280;27638;42.184;24.848;2023-12-22T08:58:28;98164.91;;;6.50;89.62
41947;BME280;27638;42.184;24.848;2023-12-22T09:00:53;98172.25;;;5.85;93.11
41947;BME280;27638;42.184;24.848;2023-12-22T09:03:18;98178.66;;;5.82;93.22
41947;BME280;27638;42.184;24.848;2023-12-22T09:05:44;98168.38;;;5.72;93.72
41947;BME280;27638;42.184;24.848;2023-12-22T09:08:09;98165.41;;;5.75;95.28
41947;BME280;27638;42.184;24.848;2023-12-22T09:10:35;98159.97;;;5.77;95.36
41947;BME280;27638;42.184;24.848;2023-12-22T09:13:00;98156.84;;;5.90;94.75
41947;BME280;27638;42.184;24.848;2023-12-22T09:15:26;98152.88;;;5.94;94.79
41947;BME280;27638;42.184;24.848;2023-12-22T09:17:52;98148.56;;;6.01;93.80
41947;BME280;27638;42.184;24.848;2023-12-22T09:20:19;98149.47;;;6.24;93.04
41947;BME280;27638;42.184;24.848;2023-12-22T09:22:45;98148.25;;;6.35;92.21
41947;BME280;27638;42.184;24.848;2023-12-22T09:25:10;98154.69;;;6.55;90.99
41947;BME280;27638;42.184;24.848;2023-12-22T09:27:35;98146.03;;;6.69;89.66
41947;BME280;27638;42.184;24.848;2023-12-22T09:30:01;98156.88;;;6.89;88.78
41947;BME280;27638;42.184;24.848;2023-12-22T09:32:26;98157.44;;;6.99;87.81
41947;BME280;27638;42.184;24.848;2023-12-22T09:34:52;98153.97;;;6.84;89.80
41947;BME280;27638;42.184;24.848;2023-12-22T09:37:18;98156.47;;;6.32;92.61
41947;BME280;27638;42.184;24.848;2023-12-22T09:39:43;98153.38;;;6.28;93.69
41947;BME280;27638;42.184;24.848;2023-12-22T09:42:08;98151.25;;;5.85;94.98
41947;BME280;27638;42.184;24.848;2023-12-22T09:44:36;98143.63;;;6.06;95.78
41947;BME280;27638;42.184;24.848;2023-12-22T09:47:04;98139.91;;;6.23;94.14
41947;BME280;27638;42.184;24.848;2023-12-22T09:49:33;98134.00;;;6.52;93.20
41947;BME280;27638;42.184;24.848;2023-12-22T09:51:59;98130.44;;;6.68;92.69
41947;BME280;27638;42.184;24.848;2023-12-22T09:54:28;98134.84;;;6.90;92.16
41947;BME280;27638;42.184;24.848;2023-12-22T09:56:54;98137.31;;;7.07;92.25
41947;BME280;27638;42.184;24.848;2023-12-22T09:59:21;98134.06;;;7.19;91.54
41947;BME280;27638;42.184;24.848;2023-12-22T10:01:48;98128.22;;;7.32;90.84
41947;BME280;27638;42.184;24.848;2023-12-22T10:04:16;98123.94;;;7.46;90.74
41947;BME280;27638;42.184;24.848;2023-12-22T10:06:41;98116.59;;;7.41;90.25
41947;BME280;27638;42.184;24.848;2023-12-22T10:09:07;98117.16;;;7.51;89.17
41947;BME280;27638;42.184;24.848;2023-12-22T10:11:35;98116.50;;;7.49;90.95
41947;BME280;27638;42.184;24.848;2023-12-22T10:14:04;98110.88;;;7.52;91.01
41947;BME280;27638;42.184;24.848;2023-12-22T10:16:30;98110.97;;;7.44;91.59
41947;BME280;27638;42.184;24.848;2023-12-22T10:18:55;98120.13;;;7.48;91.43
41947;BME280;27638;42.184;24.848;2023-12-22T10:21:21;98113.41;;;7.46;92.48
41947;BME280;27638;42.184;24.848;2023-12-22T10:23:48;98117.22;;;7.43;92.90
41947;BME280;27638;42.184;24.848;2023-12-22T10:26:13;98111.25;;;7.49;93.92
41947;BME280;27638;42.184;24.848;2023-12-22T10:28:40;98116.88;;;7.61;93.96
41947;BME280;27638;42.184;24.848;2023-12-22T10:31:06;98113.94;;;7.71;93.55
41947;BME280;27638;42.184;24.848;2023-12-22T10:33:33;98113.50;;;7.67;93.77
41947;BME280;27638;42.184;24.848;2023-12-22T10:35:59;98109.41;;;7.79;93.99
41947;BME280;27638;42.184;24.848;2023-12-22T10:38:34;98109.84;;;7.83;93.98
41947;BME280;27638;42.184;24.848;2023-12-22T10:41:03;98099.00;;;7.92;94.81
41947;BME280;27638;42.184;24.848;2023-12-22T10:43:30;98095.19;;;7.95;94.26
41947;BME280;27638;42.184;24.848;2023-12-22T10:45:55;98105.91;;;7.93;94.16
41947;BME280;27638;42.184;24.848;2023-12-22T10:48:22;98098.00;;;7.93;94.88
41947;BME280;27638;42.184;24.848;2023-12-22T10:50:48;98093.81;;;7.99;97.37
41947;BME280;27638;42.184;24.848;2023-12-22T10:53:14;98101.72;;;7.99;99.19
41947;BME280;27638;42.184;24.848;2023-12-22T10:55:39;98090.44;;;8.05;99.46
41947;BME280;27638;42.184;24.848;2023-12-22T10:58:05;98084.78;;;8.08;100.00
41947;BME280;27638;42.184;24.848;2023-12-22T11:00:37;98079.16;;;8.11;100.00
41947;BME280;27638;42.184;24.848;2023-12-22T11:03:06;98073.88;;;8.11;100.00
41947;BME280;27638;42.184;24.848;2023-12-22T11:05:34;98050.16;;;8.11;100.00
41947;BME280;27638;42.184;24.848;2023-12-22T11:08:00;98048.31;;;8.12;100.00
41947;BME280;27638;42.184;24.848;2023-12-22T11:10:31;98034.78;;;8.15;100.00
41947;BME280;27638;42.184;24.848;2023-12-22T11:12:57;98033.19;;;8.20;100.00
41947;BME280;27638;42.184;24.848;2023-12-22T11:15:24;98033.25;;;8.27;100.00
41947;BME280;27638;42.184;24.848;2023-12-22T11:17:52;98023.97;;;8.31;100.00
41947;BME280;27638;42.184;24.848;2023-12-22T11:20:18;98018.19;;;8.36;100.00
41947;BME280;27638;42.184;24.848;2023-12-22T11:22:44;98018.63;;;8.39;100.00
41947;BME280;27638;42.184;24.848;2023-12-22T11:25:10;98015.03;;;8.47;100.00
41947;BME280;27638;42.184;24.848;2023-12-22T11:27:37;98014.03;;;8.48;100.00
41947;BME280;27638;42.184;24.848;2023-12-22T11:30:04;98003.53;;;8.54;100.00
41947;BME280;27638;42.184;24.848;2023-12-22T11:32:33;97996.88;;;8.58;100.00
41947;BME280;27638;42.184;24.848;2023-12-22T11:34:59;97992.63;;;8.64;100.00
41947;BME280;27638;42.184;24.848;2023-12-22T11:37:25;97984.97;;;8.69;100.00
41947;BME280;27638;42.184;24.848;2023-12-22T11:39:50;97989.09;;;8.78;100.00
41947;BME280;27638;42.184;24.848;2023-12-22T11:42:25;97985.25;;;8.81;100.00
41947;BME280;27638;42.184;24.848;2023-12-22T11:44:53;97985.47;;;8.86;100.00
41947;BME280;27638;42.184;24.848;2023-12-22T11:47:22;97963.59;;;8.92;100.00
41947;BME280;27638;42.184;24.848;2023-12-22T11:49:48;97961.19;;;8.97;100.00
41947;BME280;27638;42.184;24.848;2023-12-22T11:52:17;97955.34;;;9.08;100.00
41947;BME280;27638;42.184;24.848;2023-12-22T11:57:37;97961.66;;;9.14;100.00
41947;BME280;27638;42.184;24.848;2023-12-22T12:02:35;97965.53;;;9.18;100.00
41947;BME280;27638;42.184;24.848;2023-12-22T12:05:02;97959.44;;;9.17;100.00
41947;BME280;27638;42.184;24.848;2023-12-22T12:07:47;97962.72;;;9.26;100.00
41947;BME280;27638;42.184;24.848;2023-12-22T12:13:08;97956.66;;;9.32;100.00
41947;BME280;27638;42.184;24.848;2023-12-22T12:15:34;97952.59;;;9.36;100.00
41947;BME280;27638;42.184;24.848;2023-12-22T12:18:01;97957.53;;;9.39;100.00
41947;BME280;27638;42.184;24.848;2023-12-22T12:20:27;97957.16;;;9.49;100.00
41947;BME280;27638;42.184;24.848;2023-12-22T12:22:54;97934.00;;;9.51;100.00
41947;BME280;27638;42.184;24.848;2023-12-22T12:25:22;97940.50;;;9.55;100.00
41947;BME280;27638;42.184;24.848;2023-12-22T12:27:53;97951.50;;;9.58;100.00
41947;BME280;27638;42.184;24.848;2023-12-22T12:30:26;97951.31;;;9.67;100.00
41947;BME280;27638;42.184;24.848;2023-12-22T12:32:51;97952.75;;;9.69;100.00
41947;BME280;27638;42.184;24.848;2023-12-22T12:35:18;97939.09;;;9.66;100.00
41947;BME280;27638;42.184;24.848;2023-12-22T12:37:44;97943.19;;;9.75;100.00
41947;BME280;27638;42.184;24.848;2023-12-22T12:40:11;97940.34;;;9.76;100.00
41947;BME280;27638;42.184;24.848;2023-12-22T12:42:37;97956.00;;;9.78;100.00
41947;BME280;27638;42.184;24.848;2023-12-22T12:45:04;97967.59;;;9.83;100.00
41947;BME280;27638;42.184;24.848;2023-12-22T12:47:30;97962.53;;;9.82;100.00
41947;BME280;27638;42.184;24.848;2023-12-22T12:49:57;97974.13;;;9.87;100.00
41947;BME280;27638;42.184;24.848;2023-12-22T12:52:23;97982.88;;;9.88;100.00
41947;BME280;27638;42.184;24.848;2023-12-22T12:54:50;97985.72;;;9.86;99.34
41947;BME280;27638;42.184;24.848;2023-12-22T12:57:16;97981.66;;;9.90;98.80
41947;BME280;27638;42.184;24.848;2023-12-22T12:59:49;97981.66;;;9.84;98.52
41947;BME280;27638;42.184;24.848;2023-12-22T13:02:15;97990.00;;;9.87;97.71
41947;BME280;27638;42.184;24.848;2023-12-22T13:04:41;97986.53;;;9.87;96.72
41947;BME280;27638;42.184;24.848;2023-12-22T13:07:08;97995.88;;;9.89;97.58